createdAt,value
2017-04-12T08:28:59.751Z,970
2017-04-12T08:30:11.978Z,915
2017-04-12T08:31:24.197Z,830
2017-04-12T08:32:36.456Z,805
2017-04-12T08:33:48.984Z,825
2017-04-12T08:35:01.500Z,850
2017-04-12T08:36:13.421Z,860
2017-04-12T08:37:24.776Z,945
2017-04-12T08:38:37.284Z,935
2017-04-12T08:39:49.189Z,965
2017-04-12T08:41:01.719Z,1025
2017-04-12T08:42:13.333Z,1140
2017-04-12T08:43:25.255Z,1120
2017-04-12T08:44:37.189Z,1100
2017-04-12T08:45:49.097Z,1085
2017-04-12T08:47:01.368Z,1055
2017-04-12T08:48:13.303Z,1050
2017-04-12T08:49:25.828Z,1125
2017-04-12T08:50:38.373Z,1140
2017-04-12T08:51:50.274Z,1240
2017-04-12T08:53:02.236Z,1190
2017-04-12T08:54:14.469Z,1050
2017-04-12T08:55:26.411Z,885
2017-04-12T08:56:38.337Z,990
2017-04-12T08:57:50.881Z,930
2017-04-12T08:59:03.099Z,840
2017-04-12T09:00:15.337Z,875
2017-04-12T09:01:26.983Z,570
2017-04-12T09:02:39.230Z,780
2017-04-12T09:03:51.462Z,850
2017-04-12T09:05:03.707Z,575
2017-04-12T09:06:15.966Z,625
2017-04-12T09:07:27.888Z,720
2017-04-12T09:08:40.133Z,955
2017-04-12T09:09:52.361Z,575
2017-04-12T09:11:04.583Z,420
2017-04-12T09:12:16.497Z,575
2017-04-12T09:13:28.792Z,465
2017-04-12T09:14:41.013Z,770
2017-04-12T09:15:52.619Z,835
2017-04-12T09:17:04.837Z,825
2017-04-12T09:18:17.680Z,875
2017-04-12T09:19:30.211Z,1035
2017-04-12T09:20:42.761Z,735
2017-04-12T09:21:55.045Z,800
2017-04-12T09:23:06.999Z,830
2017-04-12T09:24:19.242Z,760
2017-04-12T09:25:31.490Z,625
2017-04-12T09:26:44.051Z,810
2017-04-12T09:27:56.605Z,980
2017-04-12T09:29:09.125Z,770
2017-04-12T09:30:20.512Z,595
2017-04-12T09:31:33.041Z,695
2017-04-12T09:32:44.979Z,715
2017-04-12T09:33:57.211Z,700
2017-04-12T09:35:09.128Z,920
2017-04-12T09:36:21.697Z,980
2017-04-12T09:37:33.618Z,940
2017-04-12T09:38:45.835Z,1155
2017-04-12T09:39:58.389Z,1070
2017-04-12T09:41:10.956Z,960
2017-04-12T09:42:22.854Z,1025
2017-04-12T09:43:35.394Z,1350
2017-04-12T09:44:47.622Z,880
2017-04-12T09:46:00.167Z,855
2017-04-12T09:47:12.127Z,895
2017-04-12T09:48:24.361Z,1090
2017-04-12T09:49:36.923Z,915
2017-04-12T09:50:49.150Z,990
2017-04-12T09:52:01.386Z,1070
2017-04-12T09:53:13.936Z,760
2017-04-12T09:54:25.865Z,815
2017-04-12T09:55:38.127Z,915
2017-04-12T09:56:50.705Z,725
2017-04-12T09:58:02.652Z,855
2017-04-12T09:59:15.170Z,885
2017-04-12T10:00:27.396Z,670
2017-04-12T10:01:39.641Z,695
2017-04-12T10:02:51.875Z,585
2017-04-12T10:04:03.803Z,565
2017-04-12T10:05:16.025Z,530
2017-04-12T10:06:27.664Z,585
2017-04-12T10:07:40.209Z,475
2017-04-12T10:08:52.444Z,515
2017-04-12T10:10:04.703Z,575
2017-04-12T10:11:16.957Z,635
2017-04-12T10:12:29.200Z,635
2017-04-12T10:13:41.715Z,685
2017-04-12T10:14:53.645Z,655
2017-04-12T10:16:05.868Z,505
2017-04-12T10:17:18.084Z,790
2017-04-12T10:18:30.057Z,885
2017-04-12T10:19:42.296Z,765
2017-04-12T10:20:54.222Z,915
2017-04-12T10:22:06.765Z,1005
2017-04-12T10:23:18.688Z,1025
2017-04-12T10:24:30.943Z,1020
2017-04-12T10:25:43.180Z,965
2017-04-12T10:26:55.401Z,710
2017-04-12T10:28:07.954Z,685
2017-04-12T10:29:20.186Z,595
2017-04-12T10:30:32.114Z,740
2017-04-12T10:31:44.035Z,905
2017-04-12T10:32:55.940Z,1035
2017-04-12T10:34:08.177Z,920
2017-04-12T10:35:20.423Z,755
2017-04-12T10:36:32.646Z,910
2017-04-12T10:37:44.885Z,950
2017-04-12T10:38:57.414Z,860
2017-04-12T10:40:09.655Z,820
2017-04-12T10:41:21.869Z,935
2017-04-12T10:42:33.491Z,1050
2017-04-12T10:43:45.719Z,910
2017-04-12T10:44:58.240Z,870
2017-04-12T10:46:10.453Z,940
2017-04-12T10:47:22.699Z,1035
2017-04-12T10:48:34.948Z,1375
2017-04-12T10:49:47.221Z,1155
2017-04-12T10:50:59.725Z,1350
2017-04-12T10:52:11.696Z,1215
2017-04-12T10:53:24.262Z,1070
2017-04-12T10:54:36.860Z,1120
2017-04-12T10:55:49.383Z,800
2017-04-12T10:57:01.621Z,585
2017-04-12T10:58:13.264Z,585
2017-04-12T10:59:25.223Z,805
2017-04-12T11:00:36.280Z,870
2017-04-12T11:01:48.189Z,910
2017-04-12T11:03:00.429Z,1190
2017-04-12T11:04:12.349Z,1375
2017-04-12T11:05:24.602Z,1055
2017-04-12T11:06:36.841Z,1250
2017-04-12T11:07:49.055Z,1090
2017-04-12T11:09:01.301Z,870
2017-04-12T11:10:13.833Z,1015
2017-04-12T11:11:25.768Z,1300
2017-04-12T11:12:38.296Z,1310
2017-04-12T11:13:50.517Z,885
2017-04-12T11:15:02.737Z,660
2017-04-12T11:16:14.964Z,1020
2017-04-12T11:17:27.509Z,1135
2017-04-12T11:18:39.773Z,920
2017-04-12T11:19:52.001Z,995
2017-04-12T11:21:03.946Z,935
2017-04-12T11:22:16.471Z,995
2017-04-12T11:23:28.712Z,885
2017-04-12T11:24:40.656Z,905
2017-04-12T11:25:53.180Z,900
2017-04-12T11:27:05.415Z,805
2017-04-12T11:28:17.647Z,580
2017-04-12T11:29:29.614Z,565
2017-04-12T11:30:41.839Z,695
2017-04-12T11:31:53.759Z,810
2017-04-12T11:33:06.002Z,975
2017-04-12T11:34:18.250Z,1150
2017-04-12T11:35:30.196Z,1130
2017-04-12T11:36:42.115Z,1140
2017-04-12T11:37:54.339Z,1305
2017-04-12T11:39:06.582Z,1135
2017-04-12T11:40:18.481Z,1065
2017-04-12T11:41:30.719Z,1155
2017-04-12T11:42:42.669Z,1100
2017-04-12T11:43:54.918Z,970
2017-04-12T11:45:07.137Z,865
2017-04-12T11:46:19.362Z,780
2017-04-12T11:47:31.324Z,725
2017-04-12T11:48:43.567Z,935
2017-04-12T11:49:55.822Z,835
2017-04-12T11:51:07.483Z,525
2017-04-12T11:52:19.404Z,435
2017-04-12T11:53:31.653Z,575
2017-04-12T11:54:43.579Z,420
2017-04-12T11:55:55.850Z,540
2017-04-12T11:57:07.773Z,435
2017-04-12T11:58:19.995Z,330
2017-04-12T11:59:32.515Z,275
2017-04-12T12:00:44.762Z,305
2017-04-12T12:01:56.747Z,335
2017-04-12T12:03:08.953Z,375
2017-04-12T12:04:20.597Z,365
2017-04-12T12:05:32.848Z,510
2017-04-12T12:06:44.794Z,770
2017-04-12T12:07:57.029Z,1125
2017-04-12T12:09:08.972Z,1255
2017-04-12T12:10:21.528Z,1105
2017-04-12T12:11:34.063Z,770
2017-04-12T12:12:46.313Z,935
2017-04-12T12:13:58.540Z,1320
2017-04-12T12:15:11.080Z,1380
2017-04-12T12:16:22.708Z,1360
2017-04-12T12:17:34.927Z,1395
2017-04-12T12:18:47.450Z,1230
2017-04-12T12:19:59.393Z,1090
2017-04-12T12:21:11.639Z,1100
2017-04-12T12:22:23.560Z,1280
2017-04-12T12:23:35.797Z,1190
2017-04-12T12:24:47.428Z,1330
2017-04-12T12:25:59.951Z,1370
2017-04-12T12:27:12.215Z,1365
2017-04-12T12:28:24.742Z,1530
2017-04-12T12:29:36.960Z,1640
2017-04-12T12:30:49.509Z,1655
2017-04-12T12:32:02.005Z,1615
2017-04-12T12:33:14.551Z,1525
2017-04-12T12:34:26.514Z,1520
2017-04-12T12:35:39.086Z,1240
2017-04-12T12:36:51.328Z,1080
2017-04-12T12:38:03.808Z,1145
2017-04-12T12:39:16.029Z,1060
2017-04-12T12:40:28.307Z,840
2017-04-12T12:41:39.962Z,1030
2017-04-12T12:42:51.936Z,1115
2017-04-12T12:44:04.491Z,940
2017-04-12T12:45:17.049Z,875
2017-04-12T12:46:29.284Z,970
2017-04-12T12:47:41.506Z,1050
2017-04-12T12:48:53.748Z,1140
2017-04-12T12:50:06.296Z,1045
2017-04-12T12:51:18.836Z,1015
2017-04-12T12:52:31.384Z,1055
2017-04-12T12:53:43.328Z,1035
2017-04-12T12:54:55.574Z,1030
2017-04-12T12:56:08.126Z,1035
2017-04-12T12:57:20.687Z,1005
2017-04-12T12:58:32.938Z,845
2017-04-12T12:59:45.161Z,780
2017-04-12T13:00:57.683Z,815
2017-04-12T13:02:09.903Z,775
2017-04-12T13:03:22.121Z,780
2017-04-12T13:04:34.642Z,730
2017-04-12T13:05:46.867Z,525
2017-04-12T13:06:59.462Z,545
2017-04-12T13:08:11.971Z,795
2017-04-12T13:09:24.522Z,875
2017-04-12T13:10:37.299Z,805
2017-04-12T13:11:49.863Z,680
2017-04-12T13:13:02.388Z,575
2017-04-12T13:14:14.651Z,565
2017-04-12T13:15:27.185Z,710
2017-04-12T13:16:39.746Z,770
2017-04-12T13:17:52.297Z,695
2017-04-12T13:19:04.872Z,725
2017-04-12T13:20:17.179Z,810
2017-04-12T13:21:29.741Z,895
2017-04-12T13:22:42.298Z,910
2017-04-12T13:23:54.847Z,865
2017-04-12T13:25:07.100Z,790
2017-04-12T13:26:19.611Z,635
2017-04-12T13:27:32.168Z,485
2017-04-12T13:28:44.409Z,520
2017-04-12T13:29:56.651Z,525
2017-04-12T13:31:09.195Z,620
2017-04-12T13:32:21.740Z,675
2017-04-12T13:33:33.990Z,610
2017-04-12T13:34:46.539Z,585
2017-04-12T13:35:59.063Z,575
2017-04-12T13:37:11.598Z,535
2017-04-12T13:38:24.127Z,580
2017-04-12T13:39:36.350Z,605
2017-04-12T13:40:48.598Z,570
2017-04-12T13:42:01.115Z,480
2017-04-12T13:43:13.641Z,485
2017-04-12T13:44:25.885Z,535
2017-04-12T13:45:38.410Z,505
2017-04-12T13:46:50.948Z,410
2017-04-12T13:48:03.489Z,305
2017-04-12T13:49:16.037Z,230
2017-04-12T13:50:28.593Z,190
2017-04-12T13:51:41.124Z,230
2017-04-12T13:52:53.680Z,315
2017-04-12T13:54:05.920Z,250
2017-04-12T13:55:18.450Z,265
2017-04-12T13:56:30.715Z,245
2017-04-12T13:57:42.958Z,245
2017-04-12T13:58:55.210Z,255
2017-04-12T14:00:07.753Z,225
2017-04-12T14:01:20.301Z,250
2017-04-12T14:02:32.521Z,265
2017-04-12T14:03:44.763Z,250
2017-04-12T14:04:57.292Z,230
2017-04-12T14:06:09.600Z,270
2017-04-12T14:07:22.146Z,310
2017-04-12T14:08:34.680Z,320
2017-04-12T14:09:47.238Z,335
2017-04-12T14:10:59.467Z,295
2017-04-12T14:12:11.391Z,315
2017-04-12T14:13:23.930Z,360
2017-04-12T14:14:36.467Z,305
2017-04-12T14:15:48.995Z,250
2017-04-12T14:17:01.246Z,225
2017-04-12T14:18:13.768Z,200
2017-04-12T14:19:26.334Z,185
2017-04-12T14:20:38.587Z,175
2017-04-12T14:21:51.148Z,175
2017-04-12T14:23:03.676Z,170
2017-04-12T14:24:16.218Z,180
2017-04-12T14:25:28.764Z,205
2017-04-12T14:26:41.289Z,210
2017-04-12T14:27:53.810Z,215
2017-04-12T14:29:06.034Z,210
2017-04-12T14:30:18.258Z,255
2017-04-12T14:31:30.518Z,215
2017-04-12T14:32:42.747Z,155
2017-04-12T14:33:55.285Z,135
2017-04-12T14:35:07.527Z,180
2017-04-12T14:36:19.749Z,180
2017-04-12T14:37:32.552Z,185
2017-04-12T14:38:44.794Z,195
2017-04-12T14:39:57.361Z,175
2017-04-12T14:41:09.890Z,185
2017-04-12T14:42:22.115Z,225
2017-04-12T14:43:34.649Z,275
2017-04-12T14:44:47.155Z,320
2017-04-12T14:45:59.666Z,315
2017-04-12T14:47:12.212Z,295
2017-04-12T14:48:24.440Z,295
2017-04-12T14:49:36.969Z,300
2017-04-12T14:50:49.233Z,315
2017-04-12T14:52:01.771Z,360
2017-04-12T14:53:14.317Z,390
2017-04-12T14:54:26.845Z,410
2017-04-12T14:55:39.390Z,415
2017-04-12T14:56:51.937Z,410
2017-04-12T14:58:04.457Z,415
2017-04-12T14:59:16.953Z,390
2017-04-12T15:00:29.492Z,345
2017-04-12T15:01:41.724Z,320
2017-04-12T15:02:54.269Z,300
2017-04-12T15:04:05.890Z,290
2017-04-12T15:05:18.112Z,285
2017-04-12T15:06:30.646Z,240
2017-04-12T15:07:43.179Z,210
2017-04-12T15:08:55.396Z,170
2017-04-12T15:10:07.946Z,170
2017-04-12T15:11:20.520Z,170
2017-04-12T15:12:33.064Z,155
2017-04-12T15:13:45.304Z,180
2017-04-12T15:14:57.803Z,175
2017-04-12T15:16:10.367Z,185
2017-04-12T15:17:22.617Z,195
2017-04-12T15:18:35.170Z,195
2017-04-12T15:19:47.760Z,235
2017-04-12T15:21:00.286Z,245
2017-04-12T15:22:12.546Z,255
2017-04-12T15:23:25.093Z,240
2017-04-12T15:24:37.636Z,235
2017-04-12T15:25:50.172Z,230
2017-04-12T15:27:02.713Z,245
2017-04-12T15:28:15.259Z,275
2017-04-12T15:29:27.493Z,280
2017-04-12T15:30:40.027Z,280
2017-04-12T15:31:52.565Z,280
2017-04-12T15:33:05.107Z,290
2017-04-12T15:34:17.688Z,280
2017-04-12T15:35:30.202Z,250
2017-04-12T15:36:42.449Z,260
2017-04-12T15:37:54.651Z,275
2017-04-12T15:39:06.869Z,215
2017-04-12T15:40:19.393Z,205
2017-04-12T15:41:31.962Z,225
2017-04-12T15:42:44.159Z,225
2017-04-12T15:43:56.681Z,235
2017-04-12T15:45:09.217Z,275
2017-04-12T15:46:21.462Z,265
2017-04-12T15:47:33.982Z,245
2017-04-12T15:48:46.528Z,210
2017-04-12T15:49:59.082Z,190
2017-04-12T15:51:11.303Z,185
2017-04-12T15:52:23.842Z,160
2017-04-12T15:53:36.393Z,185
2017-04-12T15:54:48.941Z,190
2017-04-12T15:56:01.462Z,190
2017-04-12T15:57:14.011Z,280
2017-04-12T15:58:26.211Z,290
2017-04-12T15:59:38.728Z,235
2017-04-12T16:00:51.274Z,195
2017-04-12T16:02:03.794Z,150
2017-04-12T16:03:16.012Z,135
2017-04-12T16:04:28.538Z,150
2017-04-12T16:05:41.063Z,175
2017-04-12T16:06:53.317Z,170
2017-04-12T16:08:05.546Z,210
2017-04-12T16:09:17.746Z,215
2017-04-12T16:10:30.293Z,255
2017-04-12T16:11:42.834Z,270
2017-04-12T16:12:55.376Z,270
2017-04-12T16:14:07.926Z,305
2017-04-12T16:15:20.468Z,290
2017-04-12T16:16:33.013Z,235
2017-04-12T16:17:45.555Z,245
2017-04-12T16:18:58.084Z,230
2017-04-12T16:20:10.609Z,170
2017-04-12T16:21:23.154Z,130
2017-04-12T16:22:35.718Z,155
2017-04-12T16:23:48.263Z,150
2017-04-12T16:25:00.490Z,110
2017-04-12T16:26:13.012Z,110
2017-04-12T16:27:25.538Z,105
2017-04-12T16:28:38.027Z,75
2017-04-12T16:29:50.525Z,55
2017-04-12T16:31:03.065Z,65
2017-04-12T16:32:15.290Z,90
2017-04-12T16:33:27.813Z,100
2017-04-12T16:34:40.384Z,95
2017-04-12T16:35:52.919Z,90
2017-04-12T16:37:05.500Z,90
2017-04-12T16:38:18.020Z,85
2017-04-12T16:39:30.540Z,85
2017-04-12T16:40:43.086Z,80
2017-04-12T16:41:55.624Z,85
2017-04-12T16:43:08.157Z,90
2017-04-12T16:44:20.704Z,95
2017-04-12T16:45:33.222Z,95
2017-04-12T16:46:45.796Z,90
2017-04-12T16:47:58.342Z,85
2017-04-12T16:49:10.858Z,75
2017-04-12T16:50:23.073Z,70
2017-04-12T16:51:35.624Z,60
2017-04-12T16:52:48.169Z,60
2017-04-12T16:54:00.396Z,60
2017-04-12T16:55:12.653Z,55
2017-04-12T16:56:25.187Z,55
2017-04-12T16:57:37.110Z,55
2017-04-12T16:58:49.902Z,60
2017-04-12T17:00:02.125Z,65
2017-04-12T17:01:14.669Z,70
2017-04-12T17:02:27.191Z,65
2017-04-12T17:03:39.754Z,60
2017-04-12T17:04:52.324Z,65
2017-04-12T17:06:04.529Z,60
2017-04-12T17:07:16.762Z,55
2017-04-12T17:08:29.292Z,45
2017-04-12T17:09:41.487Z,35
2017-04-12T17:10:53.726Z,35
2017-04-12T17:12:06.234Z,35
2017-04-12T17:13:18.451Z,35
2017-04-12T17:14:30.988Z,35
2017-04-12T17:15:43.510Z,35
2017-04-12T17:16:55.739Z,30
2017-04-12T17:18:08.287Z,25
2017-04-12T17:19:20.807Z,20
2017-04-12T17:20:33.328Z,25
2017-04-12T17:21:45.872Z,25
2017-04-12T17:22:58.409Z,25
2017-04-12T17:24:10.942Z,25
2017-04-12T17:25:23.504Z,25
2017-04-12T17:26:36.070Z,15
2017-04-12T17:27:48.600Z,15
2017-04-12T17:29:00.826Z,15
2017-04-12T17:30:13.071Z,15
2017-04-12T17:31:25.864Z,15
2017-04-12T17:32:38.087Z,15
2017-04-12T17:33:50.634Z,15
2017-04-12T17:35:03.156Z,15
2017-04-12T17:36:15.101Z,15
2017-04-12T17:37:27.064Z,10
2017-04-12T17:38:39.592Z,10
2017-04-12T17:39:51.803Z,10
2017-04-12T17:41:04.333Z,10
2017-04-12T17:42:16.852Z,10
2017-04-12T17:43:29.376Z,5
2017-04-12T17:44:41.611Z,5
2017-04-12T17:45:54.166Z,5
2017-04-12T17:47:06.716Z,5
2017-04-12T17:48:18.949Z,5
2017-04-12T17:49:31.510Z,5
2017-04-12T17:50:44.056Z,5
2017-04-12T17:51:56.564Z,5
2017-04-12T17:53:09.116Z,5
2017-04-12T17:54:21.039Z,5
2017-04-12T17:55:33.559Z,5
2017-04-12T17:56:45.755Z,5
2017-04-12T17:57:58.277Z,0
2017-04-12T17:59:10.819Z,5
2017-04-12T18:00:23.411Z,5
2017-04-12T18:01:35.632Z,0
2017-04-12T18:02:47.902Z,0
2017-04-12T18:04:00.678Z,0
2017-04-12T18:05:12.906Z,0
2017-04-12T18:06:25.448Z,0
2017-04-12T18:07:37.986Z,0
2017-04-12T18:08:50.234Z,0
2017-04-12T18:10:02.760Z,0
2017-04-12T18:11:15.299Z,0
2017-04-12T18:12:27.828Z,0
2017-04-12T18:13:40.345Z,0
2017-04-12T18:14:52.868Z,0
2017-04-12T18:16:05.380Z,0
2017-04-12T18:17:17.959Z,0
2017-04-12T18:18:30.499Z,0
2017-04-12T18:19:43.028Z,0
2017-04-12T18:20:55.255Z,0
2017-04-12T18:22:07.793Z,0
2017-04-12T18:23:20.316Z,0
2017-04-12T18:24:32.838Z,0
2017-04-12T18:25:45.379Z,0
2017-04-12T18:26:57.901Z,0
2017-04-12T18:28:09.829Z,0
2017-04-12T18:29:22.367Z,0
2017-04-12T18:30:34.908Z,0
2017-04-12T18:31:47.133Z,0
2017-04-12T18:32:59.633Z,0
2017-04-12T18:34:11.879Z,0
2017-04-12T18:35:24.425Z,0
2017-04-12T18:36:36.943Z,0
2017-04-12T18:37:49.484Z,0
2017-04-12T18:39:02.029Z,0
2017-04-12T18:40:14.265Z,0
2017-04-12T18:41:26.805Z,0
2017-04-12T18:42:39.352Z,0
2017-04-12T18:43:51.888Z,0
2017-04-12T18:45:04.117Z,0
2017-04-12T18:46:16.318Z,0
2017-04-12T18:47:28.860Z,0
2017-04-12T18:48:41.376Z,0
2017-04-12T18:49:53.877Z,0
2017-04-12T18:51:06.121Z,0
2017-04-12T18:52:18.668Z,0
2017-04-12T18:53:31.190Z,0
2017-04-12T18:54:43.435Z,0
2017-04-12T18:55:55.994Z,0
2017-04-12T18:57:08.523Z,0
2017-04-12T18:58:21.036Z,0
2017-04-12T18:59:33.243Z,0
2017-04-12T19:00:45.786Z,0
2017-04-12T19:01:58.006Z,0
2017-04-12T19:03:10.527Z,0
2017-04-12T19:04:23.076Z,0
2017-04-12T19:05:35.614Z,0
2017-04-12T19:06:47.844Z,0
2017-04-12T19:08:00.364Z,0
2017-04-12T19:09:12.907Z,0
2017-04-12T19:10:25.448Z,0
2017-04-12T19:11:37.974Z,0
2017-04-12T19:12:50.505Z,0
2017-04-12T19:14:03.075Z,0
2017-04-12T19:15:15.642Z,0
2017-04-12T19:16:28.200Z,0
2017-04-12T19:17:40.753Z,0
2017-04-12T19:18:53.294Z,0
2017-04-12T19:20:05.520Z,0
2017-04-12T19:21:18.041Z,0
2017-04-12T19:22:30.590Z,0
2017-04-12T19:23:43.163Z,0
2017-04-12T19:24:55.707Z,0
2017-04-12T19:26:08.270Z,0
2017-04-12T19:27:20.799Z,0
2017-04-12T19:28:33.020Z,0
2017-04-12T19:29:45.537Z,0
2017-04-12T19:30:58.085Z,0
2017-04-12T19:32:10.632Z,0
2017-04-12T19:33:23.150Z,0
2017-04-12T19:34:35.689Z,0
2017-04-12T19:35:48.263Z,0
2017-04-12T19:37:00.483Z,0
2017-04-12T19:38:13.030Z,0
2017-04-12T19:39:25.550Z,0
2017-04-12T19:40:38.103Z,0
2017-04-12T19:41:50.624Z,0
2017-04-12T19:43:03.142Z,0
2017-04-12T19:44:15.667Z,0
2017-04-12T19:45:28.212Z,0
2017-04-12T19:46:40.455Z,0
2017-04-12T19:47:52.971Z,0
2017-04-12T19:49:05.479Z,0
2017-04-12T19:50:17.746Z,0
2017-04-12T19:51:30.239Z,0
2017-04-12T19:52:42.777Z,0
2017-04-12T19:53:55.007Z,0
2017-04-12T19:55:07.219Z,0
2017-04-12T19:56:19.747Z,0
2017-04-12T19:57:32.273Z,0
2017-04-12T19:58:44.514Z,0
2017-04-12T19:59:57.011Z,0
2017-04-12T20:01:09.548Z,0
2017-04-12T20:02:22.079Z,0
2017-04-12T20:03:34.598Z,0
2017-04-12T20:04:46.841Z,0
2017-04-12T20:05:59.410Z,0
2017-04-12T20:07:11.964Z,0
2017-04-12T20:08:24.510Z,0
2017-04-12T20:09:37.044Z,0
2017-04-12T20:10:49.580Z,0
2017-04-12T20:12:02.123Z,0
2017-04-12T20:13:14.682Z,0
2017-04-12T20:14:27.218Z,0
2017-04-12T20:15:39.732Z,0
2017-04-12T20:16:52.270Z,0
2017-04-12T20:18:04.827Z,0
2017-04-12T20:19:17.024Z,0
2017-04-12T20:20:29.523Z,0
2017-04-12T20:21:41.779Z,0
2017-04-12T20:22:53.985Z,0
2017-04-12T20:24:06.506Z,0
2017-04-12T20:25:18.728Z,0
2017-04-12T20:26:31.274Z,0
2017-04-12T20:27:43.791Z,0
2017-04-12T20:28:56.336Z,0
2017-04-12T20:30:08.537Z,0
2017-04-12T20:31:21.099Z,0
2017-04-12T20:32:33.625Z,0
2017-04-12T20:33:46.141Z,0
2017-04-12T20:34:58.684Z,0
2017-04-12T20:36:11.516Z,0
2017-04-12T20:37:23.759Z,0
2017-04-12T20:38:36.305Z,0
2017-04-12T20:39:48.821Z,0
2017-04-12T20:41:01.638Z,0
2017-04-12T20:42:14.163Z,0
2017-04-12T20:43:26.692Z,0
2017-04-12T20:44:39.209Z,0
2017-04-12T20:45:51.433Z,0
2017-04-12T20:47:03.939Z,0
2017-04-12T20:48:16.446Z,0
2017-04-12T20:49:28.984Z,0
2017-04-12T20:50:41.509Z,0
2017-04-12T20:51:54.014Z,0
2017-04-12T20:53:06.530Z,0
2017-04-12T20:54:19.068Z,0
2017-04-12T20:55:31.596Z,0
2017-04-12T20:56:44.114Z,0
2017-04-12T20:57:56.914Z,0
2017-04-12T20:59:09.502Z,0
2017-04-12T21:00:22.102Z,0
2017-04-12T21:01:34.631Z,0
2017-04-12T21:02:47.489Z,0
2017-04-12T21:03:59.439Z,0
2017-04-12T21:05:11.981Z,0
2017-04-12T21:06:24.510Z,0
2017-04-12T21:07:36.776Z,0
2017-04-12T21:08:49.301Z,0
2017-04-12T21:10:01.827Z,0
2017-04-12T21:11:14.324Z,0
2017-04-12T21:12:26.871Z,0
2017-04-12T21:13:39.427Z,0
2017-04-12T21:14:51.683Z,0
2017-04-12T21:16:03.884Z,0
2017-04-12T21:17:16.415Z,0
2017-04-12T21:18:28.644Z,0
2017-04-12T21:19:40.865Z,0
2017-04-12T21:20:53.403Z,0
2017-04-12T21:22:05.960Z,0
2017-04-12T21:23:17.920Z,0
2017-04-12T21:24:30.443Z,0
2017-04-12T21:25:42.952Z,0
2017-04-12T21:26:55.509Z,0
2017-04-12T21:28:08.037Z,0
2017-04-12T21:29:20.581Z,0
2017-04-12T21:30:33.095Z,0
2017-04-12T21:31:45.326Z,0
2017-04-12T21:32:57.538Z,0
2017-04-12T21:34:10.067Z,0
2017-04-12T21:35:22.605Z,0
2017-04-12T21:36:35.150Z,0
2017-04-12T21:37:47.696Z,0
2017-04-12T21:38:59.927Z,0
2017-04-12T21:40:11.867Z,0
2017-04-12T21:41:24.419Z,0
2017-04-12T21:42:36.942Z,0
2017-04-12T21:43:49.187Z,0
2017-04-12T21:45:01.740Z,0
2017-04-12T21:46:14.542Z,0
2017-04-12T21:47:27.090Z,0
2017-04-12T21:48:39.611Z,0
2017-04-12T21:49:52.137Z,0
2017-04-12T21:51:04.384Z,0
2017-04-12T21:52:16.929Z,0
2017-04-12T21:53:29.472Z,0
2017-04-12T21:54:41.996Z,0
2017-04-12T21:55:54.519Z,0
2017-04-12T21:57:07.043Z,0
2017-04-12T21:58:19.560Z,0
2017-04-12T21:59:32.080Z,0
2017-04-12T22:00:44.601Z,0
2017-04-12T22:01:57.117Z,0
2017-04-12T22:03:09.913Z,0
2017-04-12T22:04:22.434Z,0
2017-04-12T22:05:34.961Z,0
2017-04-12T22:06:47.473Z,0
2017-04-12T22:08:00.001Z,0
2017-04-12T22:09:12.543Z,0
2017-04-12T22:10:25.073Z,0
2017-04-12T22:11:37.323Z,0
2017-04-12T22:12:49.898Z,0
2017-04-12T22:14:02.432Z,0
2017-04-12T22:15:14.957Z,0
2017-04-12T22:16:27.503Z,0
2017-04-12T22:17:39.743Z,0
2017-04-12T22:18:51.971Z,0
2017-04-12T22:20:04.503Z,0
2017-04-12T22:21:17.011Z,0
2017-04-12T22:22:29.555Z,0
2017-04-12T22:23:42.076Z,0
2017-04-12T22:24:54.314Z,0
2017-04-12T22:26:06.536Z,0
2017-04-12T22:27:19.081Z,0
2017-04-12T22:28:31.607Z,0
2017-04-12T22:29:44.120Z,0
2017-04-12T22:30:56.683Z,0
2017-04-12T22:32:09.241Z,0
2017-04-12T22:33:21.765Z,0
2017-04-12T22:34:33.964Z,0
2017-04-12T22:35:46.486Z,0
2017-04-12T22:36:59.024Z,0
2017-04-12T22:38:11.558Z,0
2017-04-12T22:39:23.491Z,0
2017-04-12T22:40:36.040Z,0
2017-04-12T22:41:48.589Z,0
2017-04-12T22:43:01.086Z,0
2017-04-12T22:44:13.608Z,0
2017-04-12T22:45:26.149Z,0
2017-04-12T22:46:38.695Z,0
2017-04-12T22:47:51.269Z,0
2017-04-12T22:49:03.807Z,0
2017-04-12T22:50:16.375Z,0
2017-04-12T22:51:28.908Z,0
2017-04-12T22:52:41.467Z,0
2017-04-12T22:53:53.996Z,0
2017-04-12T22:55:06.544Z,0
2017-04-12T22:56:19.088Z,0
2017-04-12T22:57:31.911Z,0
2017-04-12T22:58:44.447Z,0
2017-04-12T22:59:56.979Z,0
2017-04-12T23:01:09.474Z,0
2017-04-12T23:02:21.734Z,0
2017-04-12T23:03:34.283Z,0
2017-04-12T23:04:46.801Z,0
2017-04-12T23:05:59.355Z,0
2017-04-12T23:07:11.872Z,0
2017-04-12T23:08:24.664Z,0
2017-04-12T23:09:37.186Z,0
2017-04-12T23:10:49.734Z,0
2017-04-12T23:12:02.239Z,0
2017-04-12T23:13:14.784Z,0
2017-04-12T23:14:27.281Z,0
2017-04-12T23:15:39.550Z,0
2017-04-12T23:16:52.046Z,0
2017-04-12T23:18:04.282Z,0
2017-04-12T23:19:16.527Z,0
2017-04-12T23:20:29.030Z,0
2017-04-12T23:21:41.555Z,0
2017-04-12T23:22:54.097Z,0
2017-04-12T23:24:06.619Z,0
2017-04-12T23:25:19.158Z,0
2017-04-12T23:26:31.678Z,0
2017-04-12T23:27:43.906Z,0
2017-04-12T23:28:56.460Z,0
2017-04-12T23:30:09.001Z,0
2017-04-12T23:31:21.495Z,0
2017-04-12T23:32:34.010Z,0
2017-04-12T23:33:46.254Z,0
2017-04-12T23:34:58.785Z,0
2017-04-12T23:36:11.353Z,0
2017-04-12T23:37:23.899Z,0
2017-04-12T23:38:36.127Z,0
2017-04-12T23:39:48.665Z,0
2017-04-12T23:41:01.189Z,0
2017-04-12T23:42:13.710Z,0
2017-04-12T23:43:25.928Z,0
2017-04-12T23:44:38.477Z,0
2017-04-12T23:45:51.012Z,0
2017-04-12T23:47:03.572Z,0
2017-04-12T23:48:15.816Z,0
2017-04-12T23:49:28.358Z,0
2017-04-12T23:50:40.630Z,0
2017-04-12T23:51:52.854Z,0
2017-04-12T23:53:05.373Z,0
2017-04-12T23:54:17.891Z,0
2017-04-12T23:55:30.412Z,0
2017-04-12T23:56:42.926Z,0
2017-04-12T23:57:55.471Z,0
2017-04-12T23:59:07.975Z,0
